sensor_id;sensor_type;location;lat;lon;timestamp;pressure;altitude;pressure_sealevel;temperature;humidity
34674;BME280;20879;55.668;37.858;2023-08-30T00:02:35;99639.09;;;14.96;98.60
34674;BME280;20879;55.668;37.858;2023-08-30T00:05:06;99637.97;;;15.03;97.89
34674;BME280;20879;55.668;37.858;2023-08-30T00:07:42;99633.84;;;14.98;98.29
34674;BME280;20879;55.668;37.858;2023-08-30T00:10:17;99635.03;;;14.89;98.96
34674;BME280;20879;55.668;37.858;2023-08-30T00:12:50;99631.81;;;14.81;99.37
34674;BME280;20879;55.668;37.858;2023-08-30T00:15:27;99624.09;;;14.78;99.54
34674;BME280;20879;55.668;37.858;2023-08-30T00:18:00;99626.75;;;14.76;99.72
34674;BME280;20879;55.668;37.858;2023-08-30T00:20:31;99618.78;;;14.81;99.27
34674;BME280;20879;55.668;37.858;2023-08-30T00:23:01;99624.09;;;14.78;99.37
34674;BME280;20879;55.668;37.858;2023-08-30T00:25:35;99627.59;;;14.77;99.84
34674;BME280;20879;55.668;37.858;2023-08-30T00:28:05;99624.31;;;14.72;99.99
34674;BME280;20879;55.668;37.858;2023-08-30T00:30:36;99621.59;;;14.75;99.88
34674;BME280;20879;55.668;37.858;2023-08-30T00:33:10;99626.91;;;14.72;100.00
34674;BME280;20879;55.668;37.858;2023-08-30T00:35:41;99636.63;;;14.66;100.00
34674;BME280;20879;55.668;37.858;2023-08-30T00:38:12;99636.59;;;14.68;100.00
34674;BME280;20879;55.668;37.858;2023-08-30T00:40:45;99631.22;;;14.73;100.00
34674;BME280;20879;55.668;37.858;2023-08-30T00:43:19;99622.56;;;14.72;100.00
34674;BME280;20879;55.668;37.858;2023-08-30T00:45:55;99637.56;;;14.64;100.00
34674;BME280;20879;55.668;37.858;2023-08-30T00:48:28;99642.97;;;14.58;100.00
34674;BME280;20879;55.668;37.858;2023-08-30T00:51:05;99635.09;;;14.59;100.00
34674;BME280;20879;55.668;37.858;2023-08-30T00:53:35;99643.19;;;14.51;100.00
34674;BME280;20879;55.668;37.858;2023-08-30T00:56:05;99640.63;;;14.50;100.00
34674;BME280;20879;55.668;37.858;2023-08-30T00:58:38;99653.44;;;14.56;100.00
34674;BME280;20879;55.668;37.858;2023-08-30T01:01:10;99662.59;;;14.70;100.00
34674;BME280;20879;55.668;37.858;2023-08-30T01:03:43;99653.44;;;14.83;100.00
34674;BME280;20879;55.668;37.858;2023-08-30T01:06:13;99653.28;;;14.89;100.00
34674;BME280;20879;55.668;37.858;2023-08-30T01:08:43;99655.94;;;14.86;100.00
34674;BME280;20879;55.668;37.858;2023-08-30T01:11:24;99655.81;;;14.91;100.00
34674;BME280;20879;55.668;37.858;2023-08-30T01:13:58;99648.56;;;14.99;100.00
34674;BME280;20879;55.668;37.858;2023-08-30T01:16:33;99650.00;;;15.08;100.00
34674;BME280;20879;55.668;37.858;2023-08-30T01:19:19;99655.66;;;15.20;99.65
34674;BME280;20879;55.668;37.858;2023-08-30T01:22:25;99653.88;;;15.21;98.02
34674;BME280;20879;55.668;37.858;2023-08-30T01:25:00;99664.22;;;15.24;97.67
34674;BME280;20879;55.668;37.858;2023-08-30T01:27:37;99672.34;;;15.40;96.86
34674;BME280;20879;55.668;37.858;2023-08-30T01:30:14;99678.06;;;15.26;97.17
34674;BME280;20879;55.668;37.858;2023-08-30T01:32:49;99672.03;;;15.24;97.24
34674;BME280;20879;55.668;37.858;2023-08-30T01:35:25;99672.00;;;15.26;97.04
34674;BME280;20879;55.668;37.858;2023-08-30T01:38:01;99673.84;;;15.22;97.39
34674;BME280;20879;55.668;37.858;2023-08-30T01:40:36;99672.31;;;15.16;97.40
34674;BME280;20879;55.668;37.858;2023-08-30T01:43:13;99668.16;;;15.11;97.62
34674;BME280;20879;55.668;37.858;2023-08-30T01:45:45;99673.09;;;14.93;97.70
34674;BME280;20879;55.668;37.858;2023-08-30T01:48:16;99660.91;;;14.68;98.44
34674;BME280;20879;55.668;37.858;2023-08-30T01:50:48;99678.00;;;14.76;98.06
34674;BME280;20879;55.668;37.858;2023-08-30T01:53:19;99667.13;;;14.64;98.57
34674;BME280;20879;55.668;37.858;2023-08-30T01:55:53;99672.56;;;14.55;98.87
34674;BME280;20879;55.668;37.858;2023-08-30T01:58:24;99680.59;;;14.49;99.11
34674;BME280;20879;55.668;37.858;2023-08-30T02:00:58;99672.19;;;14.41;99.12
34674;BME280;20879;55.668;37.858;2023-08-30T02:03:30;99677.19;;;14.47;99.12
34674;BME280;20879;55.668;37.858;2023-08-30T02:06:04;99668.91;;;14.62;98.09
34674;BME280;20879;55.668;37.858;2023-08-30T02:08:40;99682.44;;;14.74;97.90
34674;BME280;20879;55.668;37.858;2023-08-30T02:11:14;99679.72;;;14.77;97.67
34674;BME280;20879;55.668;37.858;2023-08-30T02:13:50;99683.84;;;14.84;97.34
34674;BME280;20879;55.668;37.858;2023-08-30T02:16:28;99681.91;;;14.91;96.56
34674;BME280;20879;55.668;37.858;2023-08-30T02:18:58;99679.03;;;14.98;96.28
34674;BME280;20879;55.668;37.858;2023-08-30T02:21:33;99683.22;;;14.76;96.90
34674;BME280;20879;55.668;37.858;2023-08-30T02:24:04;99671.22;;;14.72;97.38
34674;BME280;20879;55.668;37.858;2023-08-30T02:26:39;99664.97;;;14.49;98.66
34674;BME280;20879;55.668;37.858;2023-08-30T02:29:10;99665.84;;;14.49;98.89
34674;BME280;20879;55.668;37.858;2023-08-30T02:31:39;99679.16;;;14.68;98.90
34674;BME280;20879;55.668;37.858;2023-08-30T02:34:09;99684.06;;;14.78;97.18
34674;BME280;20879;55.668;37.858;2023-08-30T02:36:45;99682.06;;;14.84;97.41
34674;BME280;20879;55.668;37.858;2023-08-30T02:39:15;99672.75;;;14.77;97.17
34674;BME280;20879;55.668;37.858;2023-08-30T02:41:44;99681.53;;;14.75;97.57
34674;BME280;20879;55.668;37.858;2023-08-30T02:44:18;99683.22;;;14.76;97.67
34674;BME280;20879;55.668;37.858;2023-08-30T02:46:49;99694.22;;;14.85;97.39
34674;BME280;20879;55.668;37.858;2023-08-30T02:49:19;99690.75;;;14.85;96.88
34674;BME280;20879;55.668;37.858;2023-08-30T02:51:49;99695.03;;;14.88;96.47
34674;BME280;20879;55.668;37.858;2023-08-30T02:54:18;99682.72;;;14.91;96.03
34674;BME280;20879;55.668;37.858;2023-08-30T02:56:50;99697.16;;;15.01;95.48
34674;BME280;20879;55.668;37.858;2023-08-30T02:59:22;99696.25;;;15.02;95.43
34674;BME280;20879;55.668;37.858;2023-08-30T03:02:03;99703.94;;;15.07;95.13
34674;BME280;20879;55.668;37.858;2023-08-30T03:04:33;99703.78;;;15.12;94.65
34674;BME280;20879;55.668;37.858;2023-08-30T03:07:16;99705.53;;;15.11;94.38
34674;BME280;20879;55.668;37.858;2023-08-30T03:09:52;99695.84;;;15.15;93.96
34674;BME280;20879;55.668;37.858;2023-08-30T03:12:32;99694.13;;;15.14;93.63
34674;BME280;20879;55.668;37.858;2023-08-30T03:15:06;99691.38;;;15.18;93.14
34674;BME280;20879;55.668;37.858;2023-08-30T03:17:37;99684.56;;;15.14;93.42
34674;BME280;20879;55.668;37.858;2023-08-30T03:20:09;99688.78;;;15.18;93.24
34674;BME280;20879;55.668;37.858;2023-08-30T03:22:40;99687.78;;;15.21;93.08
34674;BME280;20879;55.668;37.858;2023-08-30T03:25:17;99689.34;;;15.27;92.57
34674;BME280;20879;55.668;37.858;2023-08-30T03:27:50;99679.56;;;15.33;91.67
34674;BME280;20879;55.668;37.858;2023-08-30T03:30:22;99695.09;;;15.36;91.59
34674;BME280;20879;55.668;37.858;2023-08-30T03:32:53;99699.56;;;15.33;91.80
34674;BME280;20879;55.668;37.858;2023-08-30T03:35:24;99694.19;;;15.37;91.66
34674;BME280;20879;55.668;37.858;2023-08-30T03:38:01;99682.06;;;15.36;91.40
34674;BME280;20879;55.668;37.858;2023-08-30T03:40:33;99690.41;;;15.46;90.77
34674;BME280;20879;55.668;37.858;2023-08-30T03:43:10;99691.13;;;15.50;90.68
34674;BME280;20879;55.668;37.858;2023-08-30T03:45:45;99698.06;;;15.51;90.87
34674;BME280;20879;55.668;37.858;2023-08-30T03:48:18;99691.13;;;15.50;90.17
34674;BME280;20879;55.668;37.858;2023-08-30T03:50:55;99691.25;;;15.47;90.32
34674;BME280;20879;55.668;37.858;2023-08-30T03:53:29;99688.81;;;15.42;90.49
34674;BME280;20879;55.668;37.858;2023-08-30T03:56:00;99684.44;;;15.43;91.21
34674;BME280;20879;55.668;37.858;2023-08-30T03:58:37;99687.66;;;15.26;91.63
34674;BME280;20879;55.668;37.858;2023-08-30T04:01:10;99677.84;;;15.32;91.62
34674;BME280;20879;55.668;37.858;2023-08-30T04:03:41;99693.75;;;15.50;90.64
34674;BME280;20879;55.668;37.858;2023-08-30T04:06:10;99695.50;;;15.49;90.66
34674;BME280;20879;55.668;37.858;2023-08-30T04:08:42;99697.41;;;15.44;90.08
34674;BME280;20879;55.668;37.858;2023-08-30T04:11:19;99702.34;;;15.52;89.25
34674;BME280;20879;55.668;37.858;2023-08-30T04:13:53;99691.78;;;15.57;89.24
34674;BME280;20879;55.668;37.858;2023-08-30T04:16:25;99694.38;;;15.57;89.03
34674;BME280;20879;55.668;37.858;2023-08-30T04:19:01;99702.84;;;15.63;88.52
34674;BME280;20879;55.668;37.858;2023-08-30T04:21:39;99694.66;;;15.49;89.00
34674;BME280;20879;55.668;37.858;2023-08-30T04:24:09;99704.00;;;15.54;89.32
34674;BME280;20879;55.668;37.858;2023-08-30T04:26:38;99700.88;;;15.70;88.72
34674;BME280;20879;55.668;37.858;2023-08-30T04:29:09;99692.47;;;15.85;87.36
34674;BME280;20879;55.668;37.858;2023-08-30T04:31:45;99693.47;;;15.83;86.44
34674;BME280;20879;55.668;37.858;2023-08-30T04:34:15;99695.00;;;15.63;86.29
34674;BME280;20879;55.668;37.858;2023-08-30T04:36:48;99698.50;;;15.38;87.22
34674;BME280;20879;55.668;37.858;2023-08-30T04:39:17;99704.69;;;15.36;87.55
34674;BME280;20879;55.668;37.858;2023-08-30T04:41:48;99700.22;;;15.63;86.76
34674;BME280;20879;55.668;37.858;2023-08-30T04:44:21;99696.69;;;15.89;84.76
34674;BME280;20879;55.668;37.858;2023-08-30T04:46:57;99692.94;;;15.97;83.44
34674;BME280;20879;55.668;37.858;2023-08-30T04:49:36;99707.72;;;15.98;84.26
34674;BME280;20879;55.668;37.858;2023-08-30T04:52:06;99705.81;;;16.01;83.78
34674;BME280;20879;55.668;37.858;2023-08-30T04:54:38;99709.78;;;16.12;83.42
34674;BME280;20879;55.668;37.858;2023-08-30T04:57:09;99707.34;;;16.07;82.59
34674;BME280;20879;55.668;37.858;2023-08-30T04:59:45;99710.50;;;15.93;83.36
34674;BME280;20879;55.668;37.858;2023-08-30T05:02:25;99711.81;;;15.81;84.10
34674;BME280;20879;55.668;37.858;2023-08-30T05:05:10;99714.13;;;15.89;84.14
34674;BME280;20879;55.668;37.858;2023-08-30T05:07:45;99702.31;;;15.28;84.71
34674;BME280;20879;55.668;37.858;2023-08-30T05:10:15;99723.16;;;14.78;87.19
34674;BME280;20879;55.668;37.858;2023-08-30T05:12:53;99716.53;;;14.67;88.20
34674;BME280;20879;55.668;37.858;2023-08-30T05:15:22;99722.28;;;14.77;87.99
34674;BME280;20879;55.668;37.858;2023-08-30T05:17:54;99716.00;;;14.83;88.09
34674;BME280;20879;55.668;37.858;2023-08-30T05:20:24;99725.81;;;14.76;87.67
34674;BME280;20879;55.668;37.858;2023-08-30T05:23:00;99700.06;;;14.65;87.40
34674;BME280;20879;55.668;37.858;2023-08-30T05:25:31;99705.59;;;14.83;87.57
34674;BME280;20879;55.668;37.858;2023-08-30T05:28:07;99703.28;;;15.00;86.46
34674;BME280;20879;55.668;37.858;2023-08-30T05:30:42;99709.34;;;15.01;86.09
34674;BME280;20879;55.668;37.858;2023-08-30T05:33:29;99697.53;;;15.16;85.33
34674;BME280;20879;55.668;37.858;2023-08-30T05:36:16;99699.56;;;15.08;85.26
34674;BME280;20879;55.668;37.858;2023-08-30T05:39:09;99696.72;;;15.15;85.08
34674;BME280;20879;55.668;37.858;2023-08-30T05:41:46;99694.38;;;15.31;84.40
34674;BME280;20879;55.668;37.858;2023-08-30T05:44:17;99691.06;;;15.28;84.23
34674;BME280;20879;55.668;37.858;2023-08-30T05:46:53;99690.63;;;15.15;84.78
34674;BME280;20879;55.668;37.858;2023-08-30T05:49:32;99703.94;;;15.07;85.14
34674;BME280;20879;55.668;37.858;2023-08-30T05:52:03;99699.06;;;14.96;84.97
34674;BME280;20879;55.668;37.858;2023-08-30T05:54:39;99703.47;;;14.94;85.62
34674;BME280;20879;55.668;37.858;2023-08-30T05:57:17;99726.44;;;15.10;85.01
34674;BME280;20879;55.668;37.858;2023-08-30T05:59:53;99705.59;;;15.10;84.62
34674;BME280;20879;55.668;37.858;2023-08-30T06:02:30;99715.81;;;15.16;84.13
34674;BME280;20879;55.668;37.858;2023-08-30T06:05:12;99722.22;;;15.06;84.36
34674;BME280;20879;55.668;37.858;2023-08-30T06:07:46;99724.06;;;15.02;84.47
34674;BME280;20879;55.668;37.858;2023-08-30T06:10:22;99727.25;;;15.12;84.53
34674;BME280;20879;55.668;37.858;2023-08-30T06:13:01;99729.44;;;14.97;85.07
34674;BME280;20879;55.668;37.858;2023-08-30T06:15:31;99730.28;;;14.99;84.83
34674;BME280;20879;55.668;37.858;2023-08-30T06:18:08;99731.22;;;15.22;84.37
34674;BME280;20879;55.668;37.858;2023-08-30T06:20:42;99732.63;;;15.32;83.72
34674;BME280;20879;55.668;37.858;2023-08-30T06:23:18;99745.44;;;15.38;83.76
34674;BME280;20879;55.668;37.858;2023-08-30T06:25:56;99750.88;;;15.32;83.13
34674;BME280;20879;55.668;37.858;2023-08-30T06:28:31;99740.81;;;15.22;84.13
34674;BME280;20879;55.668;37.858;2023-08-30T06:31:04;99743.91;;;15.33;83.39
34674;BME280;20879;55.668;37.858;2023-08-30T06:33:36;99734.75;;;15.46;82.91
34674;BME280;20879;55.668;37.858;2023-08-30T06:36:09;99733.09;;;15.44;83.10
34674;BME280;20879;55.668;37.858;2023-08-30T06:38:42;99743.22;;;15.28;83.15
34674;BME280;20879;55.668;37.858;2023-08-30T06:41:12;99733.94;;;15.44;83.08
34674;BME280;20879;55.668;37.858;2023-08-30T06:43:48;99737.94;;;15.54;82.66
34674;BME280;20879;55.668;37.858;2023-08-30T06:46:17;99736.09;;;15.58;82.27
34674;BME280;20879;55.668;37.858;2023-08-30T06:48:48;99732.66;;;15.56;82.27
34674;BME280;20879;55.668;37.858;2023-08-30T06:51:20;99738.81;;;15.55;82.41
34674;BME280;20879;55.668;37.858;2023-08-30T06:53:50;99726.38;;;15.62;81.98
34674;BME280;20879;55.668;37.858;2023-08-30T06:56:27;99737.03;;;15.81;80.83
34674;BME280;20879;55.668;37.858;2023-08-30T06:58:58;99738.88;;;15.77;81.27
34674;BME280;20879;55.668;37.858;2023-08-30T07:01:39;99743.03;;;15.58;81.55
34674;BME280;20879;55.668;37.858;2023-08-30T07:04:08;99751.34;;;15.69;81.07
34674;BME280;20879;55.668;37.858;2023-08-30T07:06:46;99746.78;;;15.76;80.54
34674;BME280;20879;55.668;37.858;2023-08-30T07:09:16;99758.34;;;15.68;81.18
34674;BME280;20879;55.668;37.858;2023-08-30T07:11:53;99760.06;;;15.95;80.24
34674;BME280;20879;55.668;37.858;2023-08-30T07:14:26;99755.69;;;16.41;79.16
34674;BME280;20879;55.668;37.858;2023-08-30T07:16:56;99746.84;;;16.89;76.67
34674;BME280;20879;55.668;37.858;2023-08-30T07:19:26;99743.06;;;17.17;75.25
34674;BME280;20879;55.668;37.858;2023-08-30T07:22:02;99730.31;;;17.09;73.93
34674;BME280;20879;55.668;37.858;2023-08-30T07:24:37;99743.47;;;16.86;74.00
34674;BME280;20879;55.668;37.858;2023-08-30T07:27:09;99746.47;;;16.76;74.49
34674;BME280;20879;55.668;37.858;2023-08-30T07:29:44;99745.53;;;17.00;74.35
34674;BME280;20879;55.668;37.858;2023-08-30T07:32:14;99751.66;;;17.41;73.52
34674;BME280;20879;55.668;37.858;2023-08-30T07:34:50;99749.50;;;17.72;71.37
34674;BME280;20879;55.668;37.858;2023-08-30T07:37:22;99753.84;;;17.71;71.35
34674;BME280;20879;55.668;37.858;2023-08-30T07:39:51;99743.88;;;17.19;72.10
34674;BME280;20879;55.668;37.858;2023-08-30T07:42:31;99745.53;;;17.00;73.45
34674;BME280;20879;55.668;37.858;2023-08-30T07:45:07;99741.06;;;16.81;73.80
34674;BME280;20879;55.668;37.858;2023-08-30T07:47:38;99735.34;;;16.93;74.28
34674;BME280;20879;55.668;37.858;2023-08-30T07:50:14;99746.47;;;16.99;73.85
34674;BME280;20879;55.668;37.858;2023-08-30T07:52:52;99762.41;;;16.92;74.28
34674;BME280;20879;55.668;37.858;2023-08-30T07:55:21;99760.47;;;17.18;74.21
34674;BME280;20879;55.668;37.858;2023-08-30T07:57:51;99742.81;;;17.64;72.46
34674;BME280;20879;55.668;37.858;2023-08-30T08:00:25;99758.84;;;17.57;71.79
34674;BME280;20879;55.668;37.858;2023-08-30T08:02:55;99761.53;;;17.55;71.62
34674;BME280;20879;55.668;37.858;2023-08-30T08:05:25;99759.09;;;17.51;71.86
34674;BME280;20879;55.668;37.858;2023-08-30T08:08:02;99765.66;;;17.40;72.73
34674;BME280;20879;55.668;37.858;2023-08-30T08:10:32;99742.31;;;17.36;72.04
34674;BME280;20879;55.668;37.858;2023-08-30T08:13:03;99760.03;;;17.29;71.90
34674;BME280;20879;55.668;37.858;2023-08-30T08:15:32;99759.50;;;17.21;72.55
34674;BME280;20879;55.668;37.858;2023-08-30T08:18:07;99770.06;;;17.40;72.05
34674;BME280;20879;55.668;37.858;2023-08-30T08:20:37;99767.75;;;17.73;70.51
34674;BME280;20879;55.668;37.858;2023-08-30T08:23:11;99756.03;;;17.61;70.41
34674;BME280;20879;55.668;37.858;2023-08-30T08:25:40;99775.97;;;17.85;70.51
34674;BME280;20879;55.668;37.858;2023-08-30T08:28:10;99772.13;;;18.50;69.26
34674;BME280;20879;55.668;37.858;2023-08-30T08:30:40;99765.28;;;19.21;67.00
34674;BME280;20879;55.668;37.858;2023-08-30T08:33:19;99764.31;;;19.22;64.60
34674;BME280;20879;55.668;37.858;2023-08-30T08:35:50;99774.44;;;19.12;65.19
34674;BME280;20879;55.668;37.858;2023-08-30T08:38:25;99773.91;;;19.23;64.10
34674;BME280;20879;55.668;37.858;2023-08-30T08:41:01;99771.69;;;19.15;63.83
34674;BME280;20879;55.668;37.858;2023-08-30T08:43:40;99768.66;;;18.31;65.63
34674;BME280;20879;55.668;37.858;2023-08-30T08:46:14;99789.31;;;17.99;67.07
34674;BME280;20879;55.668;37.858;2023-08-30T08:48:49;99781.88;;;17.90;67.11
34674;BME280;20879;55.668;37.858;2023-08-30T08:51:23;99777.72;;;18.05;67.04
34674;BME280;20879;55.668;37.858;2023-08-30T08:54:04;99783.81;;;18.05;66.88
34674;BME280;20879;55.668;37.858;2023-08-30T08:56:39;99771.16;;;18.34;65.80
34674;BME280;20879;55.668;37.858;2023-08-30T08:59:24;99771.66;;;18.42;65.80
34674;BME280;20879;55.668;37.858;2023-08-30T09:01:55;99781.44;;;18.75;64.74
34674;BME280;20879;55.668;37.858;2023-08-30T09:04:37;99784.38;;;18.69;64.31
34674;BME280;20879;55.668;37.858;2023-08-30T09:07:08;99781.47;;;18.18;64.76
34674;BME280;20879;55.668;37.858;2023-08-30T09:09:47;99790.63;;;17.89;66.16
34674;BME280;20879;55.668;37.858;2023-08-30T09:12:19;99790.53;;;18.11;65.39
34674;BME280;20879;55.668;37.858;2023-08-30T09:14:54;99794.13;;;18.48;64.07
34674;BME280;20879;55.668;37.858;2023-08-30T09:17:37;99792.00;;;18.74;62.87
34674;BME280;20879;55.668;37.858;2023-08-30T09:20:13;99800.03;;;18.90;63.24
34674;BME280;20879;55.668;37.858;2023-08-30T09:22:51;99804.34;;;19.45;62.03
34674;BME280;20879;55.668;37.858;2023-08-30T09:25:26;99806.72;;;19.49;61.55
34674;BME280;20879;55.668;37.858;2023-08-30T09:28:04;99800.81;;;18.54;63.69
34674;BME280;20879;55.668;37.858;2023-08-30T09:30:34;99810.19;;;18.40;65.20
34674;BME280;20879;55.668;37.858;2023-08-30T09:33:04;99807.63;;;18.58;65.30
34674;BME280;20879;55.668;37.858;2023-08-30T09:35:46;99814.72;;;18.37;65.16
34674;BME280;20879;55.668;37.858;2023-08-30T09:38:19;99805.59;;;18.45;65.35
34674;BME280;20879;55.668;37.858;2023-08-30T09:41:02;99816.06;;;18.64;64.85
34674;BME280;20879;55.668;37.858;2023-08-30T09:43:42;99817.72;;;18.86;64.30
34674;BME280;20879;55.668;37.858;2023-08-30T09:46:18;99807.34;;;18.83;64.09
34674;BME280;20879;55.668;37.858;2023-08-30T09:48:48;99809.34;;;18.59;65.01
34674;BME280;20879;55.668;37.858;2023-08-30T09:51:27;99813.75;;;18.39;65.18
34674;BME280;20879;55.668;37.858;2023-08-30T09:54:04;99811.28;;;18.15;66.07
34674;BME280;20879;55.668;37.858;2023-08-30T09:56:57;99820.19;;;18.51;65.14
34674;BME280;20879;55.668;37.858;2023-08-30T09:59:35;99814.28;;;18.65;63.81
34674;BME280;20879;55.668;37.858;2023-08-30T10:02:06;99815.00;;;18.49;64.41
34674;BME280;20879;55.668;37.858;2023-08-30T10:04:38;99822.94;;;18.67;64.80
34674;BME280;20879;55.668;37.858;2023-08-30T10:07:13;99815.53;;;18.75;64.42
34674;BME280;20879;55.668;37.858;2023-08-30T10:09:51;99834.03;;;19.10;63.30
34674;BME280;20879;55.668;37.858;2023-08-30T10:12:41;99812.25;;;19.08;62.29
34674;BME280;20879;55.668;37.858;2023-08-30T10:15:33;99818.41;;;18.32;64.10
34674;BME280;20879;55.668;37.858;2023-08-30T10:18:06;99813.34;;;18.09;65.26
34674;BME280;20879;55.668;37.858;2023-08-30T10:20:44;99821.91;;;18.12;65.31
34674;BME280;20879;55.668;37.858;2023-08-30T10:23:21;99826.00;;;17.99;66.09
34674;BME280;20879;55.668;37.858;2023-08-30T10:25:52;99833.59;;;18.05;65.70
34674;BME280;20879;55.668;37.858;2023-08-30T10:28:24;99826.34;;;18.31;65.50
34674;BME280;20879;55.668;37.858;2023-08-30T10:31:00;99819.97;;;18.37;64.72
34674;BME280;20879;55.668;37.858;2023-08-30T10:33:32;99814.13;;;18.30;65.12
34674;BME280;20879;55.668;37.858;2023-08-30T10:36:10;99805.72;;;18.23;65.27
34674;BME280;20879;55.668;37.858;2023-08-30T10:38:48;99816.53;;;18.54;64.48
34674;BME280;20879;55.668;37.858;2023-08-30T10:41:30;99814.72;;;18.56;63.93
34674;BME280;20879;55.668;37.858;2023-08-30T10:44:04;99815.09;;;18.29;64.74
34674;BME280;20879;55.668;37.858;2023-08-30T10:46:35;99816.13;;;18.25;65.34
34674;BME280;20879;55.668;37.858;2023-08-30T10:49:11;99814.72;;;18.37;65.10
34674;BME280;20879;55.668;37.858;2023-08-30T10:51:43;99809.25;;;18.41;65.30
34674;BME280;20879;55.668;37.858;2023-08-30T10:54:16;99784.38;;;18.12;65.52
34674;BME280;20879;55.668;37.858;2023-08-30T10:56:46;99819.66;;;18.24;65.86
34674;BME280;20879;55.668;37.858;2023-08-30T10:59:19;99808.28;;;18.25;65.93
34674;BME280;20879;55.668;37.858;2023-08-30T11:02:12;99798.25;;;18.14;66.03
34674;BME280;20879;55.668;37.858;2023-08-30T11:04:48;99797.28;;;18.16;65.24
34674;BME280;20879;55.668;37.858;2023-08-30T11:07:18;99802.63;;;17.94;66.61
34674;BME280;20879;55.668;37.858;2023-08-30T11:09:54;99804.69;;;17.86;66.76
34674;BME280;20879;55.668;37.858;2023-08-30T11:12:23;99809.09;;;17.86;66.90
34674;BME280;20879;55.668;37.858;2023-08-30T11:14:55;99808.09;;;17.90;66.93
34674;BME280;20879;55.668;37.858;2023-08-30T11:17:26;99791.47;;;17.91;67.78
34674;BME280;20879;55.668;37.858;2023-08-30T11:20:05;99802.28;;;17.81;67.31
34674;BME280;20879;55.668;37.858;2023-08-30T11:22:47;99798.31;;;17.93;67.17
34674;BME280;20879;55.668;37.858;2023-08-30T11:25:19;99791.66;;;18.05;67.14
34674;BME280;20879;55.668;37.858;2023-08-30T11:28:02;99770.22;;;17.97;66.44
34674;BME280;20879;55.668;37.858;2023-08-30T11:30:41;99794.44;;;18.40;65.61
34674;BME280;20879;55.668;37.858;2023-08-30T11:33:17;99806.06;;;18.54;65.37
34674;BME280;20879;55.668;37.858;2023-08-30T11:35:48;99803.50;;;18.71;64.35
34674;BME280;20879;55.668;37.858;2023-08-30T11:38:19;99818.53;;;18.86;64.19
34674;BME280;20879;55.668;37.858;2023-08-30T11:40:51;99817.66;;;19.05;63.25
34674;BME280;20879;55.668;37.858;2023-08-30T11:43:31;99787.47;;;18.96;63.03
34674;BME280;20879;55.668;37.858;2023-08-30T11:46:10;99790.19;;;19.12;62.82
34674;BME280;20879;55.668;37.858;2023-08-30T11:48:40;99792.81;;;19.12;62.70
34674;BME280;20879;55.668;37.858;2023-08-30T11:51:16;99766.56;;;18.95;63.07
34674;BME280;20879;55.668;37.858;2023-08-30T11:53:48;99801.06;;;19.04;63.36
34674;BME280;20879;55.668;37.858;2023-08-30T11:56:19;99796.81;;;19.02;63.34
34674;BME280;20879;55.668;37.858;2023-08-30T11:58:56;99796.94;;;18.99;63.50
34674;BME280;20879;55.668;37.858;2023-08-30T12:01:32;99794.13;;;18.84;63.66
34674;BME280;20879;55.668;37.858;2023-08-30T12:04:12;99802.75;;;19.06;62.95
34674;BME280;20879;55.668;37.858;2023-08-30T12:06:52;99800.88;;;18.90;62.96
34674;BME280;20879;55.668;37.858;2023-08-30T12:09:34;99801.91;;;18.88;63.77
34674;BME280;20879;55.668;37.858;2023-08-30T12:12:09;99797.19;;;18.75;63.54
34674;BME280;20879;55.668;37.858;2023-08-30T12:14:56;99804.75;;;18.81;63.50
34674;BME280;20879;55.668;37.858;2023-08-30T12:17:34;99802.28;;;18.78;64.14
34674;BME280;20879;55.668;37.858;2023-08-30T12:20:13;99780.03;;;18.68;64.00
34674;BME280;20879;55.668;37.858;2023-08-30T12:22:47;99794.13;;;18.84;63.78
34674;BME280;20879;55.668;37.858;2023-08-30T12:25:20;99782.81;;;18.65;64.77
34674;BME280;20879;55.668;37.858;2023-08-30T12:27:55;99787.22;;;18.64;64.63
34674;BME280;20879;55.668;37.858;2023-08-30T12:30:25;99783.03;;;18.60;63.48
34674;BME280;20879;55.668;37.858;2023-08-30T12:33:02;99767.59;;;18.54;63.67
34674;BME280;20879;55.668;37.858;2023-08-30T12:35:39;99772.78;;;18.56;64.00
34674;BME280;20879;55.668;37.858;2023-08-30T12:38:09;99770.34;;;18.70;63.82
34674;BME280;20879;55.668;37.858;2023-08-30T12:40:41;99762.75;;;18.83;63.16
34674;BME280;20879;55.668;37.858;2023-08-30T12:49:28;99746.81;;;18.68;63.07
34674;BME280;20879;55.668;37.858;2023-08-30T12:52:00;99742.25;;;18.72;63.27
34674;BME280;20879;55.668;37.858;2023-08-30T12:54:32;99736.56;;;18.81;63.32
34674;BME280;20879;55.668;37.858;2023-08-30T12:57:03;99715.72;;;18.78;63.06
34674;BME280;20879;55.668;37.858;2023-08-30T12:59:34;99732.75;;;18.89;63.34
34674;BME280;20879;55.668;37.858;2023-08-30T13:02:12;99739.84;;;18.86;63.14
34674;BME280;20879;55.668;37.858;2023-08-30T13:04:45;99735.72;;;18.81;63.47
34674;BME280;20879;55.668;37.858;2023-08-30T13:07:15;99735.31;;;18.71;64.07
34674;BME280;20879;55.668;37.858;2023-08-30T13:09:47;99729.06;;;18.74;64.27
34674;BME280;20879;55.668;37.858;2023-08-30T13:12:17;99722.69;;;18.79;64.04
34674;BME280;20879;55.668;37.858;2023-08-30T13:14:49;99715.44;;;18.67;63.82
34674;BME280;20879;55.668;37.858;2023-08-30T13:17:20;99716.25;;;18.67;63.94
34674;BME280;20879;55.668;37.858;2023-08-30T13:19:56;99700.44;;;18.69;63.90
34674;BME280;20879;55.668;37.858;2023-08-30T13:22:31;99711.56;;;18.74;62.94
34674;BME280;20879;55.668;37.858;2023-08-30T13:25:01;99717.44;;;18.79;63.54
34674;BME280;20879;55.668;37.858;2023-08-30T13:27:32;99698.72;;;18.87;63.04
34674;BME280;20879;55.668;37.858;2023-08-30T13:30:07;99681.34;;;18.84;62.75
34674;BME280;20879;55.668;37.858;2023-08-30T13:32:37;99680.44;;;19.03;62.68
34674;BME280;20879;55.668;37.858;2023-08-30T13:35:10;99679.50;;;19.04;62.79